sensor_id;sensor_type;location;lat;lon;timestamp;P1;durP1;ratioP1;P2;durP2;ratioP2
20441;SDS011;10380;52.102;20.614;2022-07-15T00:02:14;7.85;;;2.03;;
20441;SDS011;10380;52.102;20.614;2022-07-15T00:04:41;3.38;;;1.70;;
20441;SDS011;10380;52.102;20.614;2022-07-15T00:07:08;9.65;;;1.98;;
20441;SDS011;10380;52.102;20.614;2022-07-15T00:09:35;5.03;;;1.85;;
20441;SDS011;10380;52.102;20.614;2022-07-15T00:12:21;6.85;;;1.98;;
20441;SDS011;10380;52.102;20.614;2022-07-15T00:14:48;3.63;;;2.10;;
20441;SDS011;10380;52.102;20.614;2022-07-15T00:17:15;5.82;;;1.98;;
20441;SDS011;10380;52.102;20.614;2022-07-15T00:19:42;4.57;;;1.80;;
20441;SDS011;10380;52.102;20.614;2022-07-15T00:22:10;4.50;;;1.40;;
20441;SDS011;10380;52.102;20.614;2022-07-15T00:24:37;5.22;;;1.70;;
20441;SDS011;10380;52.102;20.614;2022-07-15T00:27:05;2.58;;;1.50;;
20441;SDS011;10380;52.102;20.614;2022-07-15T00:29:32;3.55;;;1.27;;
20441;SDS011;10380;52.102;20.614;2022-07-15T00:32:00;5.57;;;1.65;;
20441;SDS011;10380;52.102;20.614;2022-07-15T00:34:27;5.45;;;1.67;;
20441;SDS011;10380;52.102;20.614;2022-07-15T00:36:54;4.45;;;1.42;;
20441;SDS011;10380;52.102;20.614;2022-07-15T00:39:21;6.53;;;1.55;;
20441;SDS011;10380;52.102;20.614;2022-07-15T00:41:48;7.28;;;1.95;;
20441;SDS011;10380;52.102;20.614;2022-07-15T00:44:16;5.63;;;2.50;;
20441;SDS011;10380;52.102;20.614;2022-07-15T00:46:44;5.40;;;1.58;;
20441;SDS011;10380;52.102;20.614;2022-07-15T00:49:11;4.38;;;1.63;;
20441;SDS011;10380;52.102;20.614;2022-07-15T00:51:45;3.30;;;1.50;;
20441;SDS011;10380;52.102;20.614;2022-07-15T00:54:14;4.97;;;2.08;;
20441;SDS011;10380;52.102;20.614;2022-07-15T00:56:49;3.90;;;1.77;;
20441;SDS011;10380;52.102;20.614;2022-07-15T00:59:21;4.38;;;1.73;;
20441;SDS011;10380;52.102;20.614;2022-07-15T01:01:51;4.25;;;1.40;;
20441;SDS011;10380;52.102;20.614;2022-07-15T01:04:20;6.22;;;1.75;;
20441;SDS011;10380;52.102;20.614;2022-07-15T01:06:49;6.10;;;2.85;;
20441;SDS011;10380;52.102;20.614;2022-07-15T01:09:16;5.25;;;1.50;;
20441;SDS011;10380;52.102;20.614;2022-07-15T01:11:45;5.93;;;1.70;;
20441;SDS011;10380;52.102;20.614;2022-07-15T01:14:13;7.47;;;1.77;;
20441;SDS011;10380;52.102;20.614;2022-07-15T01:16:42;6.03;;;2.30;;
20441;SDS011;10380;52.102;20.614;2022-07-15T01:19:09;6.85;;;1.90;;
20441;SDS011;10380;52.102;20.614;2022-07-15T01:21:36;5.32;;;1.98;;
20441;SDS011;10380;52.102;20.614;2022-07-15T01:24:03;5.95;;;1.85;;
20441;SDS011;10380;52.102;20.614;2022-07-15T01:26:30;4.43;;;1.65;;
20441;SDS011;10380;52.102;20.614;2022-07-15T01:28:57;4.22;;;1.60;;
20441;SDS011;10380;52.102;20.614;2022-07-15T01:31:24;3.30;;;1.73;;
20441;SDS011;10380;52.102;20.614;2022-07-15T01:33:51;5.47;;;2.10;;
20441;SDS011;10380;52.102;20.614;2022-07-15T01:36:21;6.78;;;1.80;;
20441;SDS011;10380;52.102;20.614;2022-07-15T01:38:48;6.25;;;1.77;;
20441;SDS011;10380;52.102;20.614;2022-07-15T01:41:31;2.60;;;1.65;;
20441;SDS011;10380;52.102;20.614;2022-07-15T01:43:58;5.05;;;1.60;;
20441;SDS011;10380;52.102;20.614;2022-07-15T01:46:25;4.90;;;1.90;;
20441;SDS011;10380;52.102;20.614;2022-07-15T01:48:52;3.72;;;1.60;;
20441;SDS011;10380;52.102;20.614;2022-07-15T01:51:38;5.18;;;1.88;;
20441;SDS011;10380;52.102;20.614;2022-07-15T01:54:05;5.55;;;1.52;;
20441;SDS011;10380;52.102;20.614;2022-07-15T01:56:33;4.45;;;1.52;;
20441;SDS011;10380;52.102;20.614;2022-07-15T01:59:03;3.43;;;1.60;;
20441;SDS011;10380;52.102;20.614;2022-07-15T02:01:30;6.68;;;2.63;;
20441;SDS011;10380;52.102;20.614;2022-07-15T02:03:58;8.60;;;1.90;;
20441;SDS011;10380;52.102;20.614;2022-07-15T02:06:25;3.75;;;1.40;;
20441;SDS011;10380;52.102;20.614;2022-07-15T02:08:53;3.60;;;1.70;;
20441;SDS011;10380;52.102;20.614;2022-07-15T02:11:20;5.50;;;1.40;;
20441;SDS011;10380;52.102;20.614;2022-07-15T02:13:47;3.47;;;1.73;;
20441;SDS011;10380;52.102;20.614;2022-07-15T02:16:14;2.53;;;1.63;;
20441;SDS011;10380;52.102;20.614;2022-07-15T02:18:42;3.38;;;1.75;;
20441;SDS011;10380;52.102;20.614;2022-07-15T02:21:09;5.43;;;1.70;;
20441;SDS011;10380;52.102;20.614;2022-07-15T02:23:36;3.35;;;1.33;;
20441;SDS011;10380;52.102;20.614;2022-07-15T02:26:03;4.45;;;1.65;;
20441;SDS011;10380;52.102;20.614;2022-07-15T02:28:30;5.83;;;1.67;;
20441;SDS011;10380;52.102;20.614;2022-07-15T02:30:58;4.73;;;1.70;;
20441;SDS011;10380;52.102;20.614;2022-07-15T02:33:25;4.17;;;1.60;;
20441;SDS011;10380;52.102;20.614;2022-07-15T02:35:52;4.40;;;1.43;;
20441;SDS011;10380;52.102;20.614;2022-07-15T02:38:19;4.00;;;1.37;;
20441;SDS011;10380;52.102;20.614;2022-07-15T02:40:48;5.00;;;1.60;;
20441;SDS011;10380;52.102;20.614;2022-07-15T02:43:15;5.90;;;1.40;;
20441;SDS011;10380;52.102;20.614;2022-07-15T02:45:42;7.50;;;1.50;;
20441;SDS011;10380;52.102;20.614;2022-07-15T02:48:10;3.97;;;1.50;;
20441;SDS011;10380;52.102;20.614;2022-07-15T02:50:37;7.27;;;1.50;;
20441;SDS011;10380;52.102;20.614;2022-07-15T02:53:04;4.00;;;1.37;;
20441;SDS011;10380;52.102;20.614;2022-07-15T02:55:31;7.30;;;1.80;;
20441;SDS011;10380;52.102;20.614;2022-07-15T02:57:58;5.30;;;1.63;;
20441;SDS011;10380;52.102;20.614;2022-07-15T03:00:27;3.10;;;1.20;;
20441;SDS011;10380;52.102;20.614;2022-07-15T03:02:54;3.57;;;1.80;;
20441;SDS011;10380;52.102;20.614;2022-07-15T03:05:21;4.93;;;1.30;;
20441;SDS011;10380;52.102;20.614;2022-07-15T03:07:48;2.47;;;1.27;;
20441;SDS011;10380;52.102;20.614;2022-07-15T03:10:15;5.55;;;1.73;;
20441;SDS011;10380;52.102;20.614;2022-07-15T03:12:43;4.03;;;1.20;;
20441;SDS011;10380;52.102;20.614;2022-07-15T03:15:10;3.33;;;1.70;;
20441;SDS011;10380;52.102;20.614;2022-07-15T03:17:40;3.13;;;1.37;;
20441;SDS011;10380;52.102;20.614;2022-07-15T03:20:08;3.87;;;1.50;;
20441;SDS011;10380;52.102;20.614;2022-07-15T03:22:37;4.43;;;1.60;;
20441;SDS011;10380;52.102;20.614;2022-07-15T03:25:04;6.50;;;1.90;;
20441;SDS011;10380;52.102;20.614;2022-07-15T03:27:31;4.20;;;1.90;;
20441;SDS011;10380;52.102;20.614;2022-07-15T03:30:00;6.90;;;2.27;;
20441;SDS011;10380;52.102;20.614;2022-07-15T03:32:27;5.37;;;2.27;;
20441;SDS011;10380;52.102;20.614;2022-07-15T03:34:54;5.00;;;1.80;;
20441;SDS011;10380;52.102;20.614;2022-07-15T03:37:23;3.80;;;1.70;;
20441;SDS011;10380;52.102;20.614;2022-07-15T03:39:50;6.00;;;1.97;;
20441;SDS011;10380;52.102;20.614;2022-07-15T03:42:17;5.93;;;1.70;;
20441;SDS011;10380;52.102;20.614;2022-07-15T03:44:44;9.33;;;2.10;;
20441;SDS011;10380;52.102;20.614;2022-07-15T03:47:11;5.73;;;1.77;;
20441;SDS011;10380;52.102;20.614;2022-07-15T03:49:38;6.30;;;2.10;;
20441;SDS011;10380;52.102;20.614;2022-07-15T03:52:06;3.73;;;1.83;;
20441;SDS011;10380;52.102;20.614;2022-07-15T03:54:32;8.00;;;2.17;;
20441;SDS011;10380;52.102;20.614;2022-07-15T03:56:59;5.97;;;1.80;;
20441;SDS011;10380;52.102;20.614;2022-07-15T03:59:26;8.13;;;1.80;;
20441;SDS011;10380;52.102;20.614;2022-07-15T04:01:53;6.10;;;1.60;;
20441;SDS011;10380;52.102;20.614;2022-07-15T04:04:20;5.23;;;1.90;;
20441;SDS011;10380;52.102;20.614;2022-07-15T04:06:47;3.63;;;1.40;;
20441;SDS011;10380;52.102;20.614;2022-07-15T04:09:14;4.00;;;1.40;;
20441;SDS011;10380;52.102;20.614;2022-07-15T04:11:41;6.47;;;2.55;;
20441;SDS011;10380;52.102;20.614;2022-07-15T04:14:10;4.20;;;1.87;;
20441;SDS011;10380;52.102;20.614;2022-07-15T04:16:43;3.73;;;1.47;;
20441;SDS011;10380;52.102;20.614;2022-07-15T04:19:11;4.15;;;2.05;;
20441;SDS011;10380;52.102;20.614;2022-07-15T04:21:37;5.13;;;1.20;;
20441;SDS011;10380;52.102;20.614;2022-07-15T04:24:04;3.13;;;1.70;;
20441;SDS011;10380;52.102;20.614;2022-07-15T04:26:31;5.17;;;1.40;;
20441;SDS011;10380;52.102;20.614;2022-07-15T04:28:58;3.50;;;1.37;;
20441;SDS011;10380;52.102;20.614;2022-07-15T04:31:25;2.97;;;1.70;;
20441;SDS011;10380;52.102;20.614;2022-07-15T04:33:52;6.97;;;1.48;;
20441;SDS011;10380;52.102;20.614;2022-07-15T04:36:19;4.30;;;1.60;;
20441;SDS011;10380;52.102;20.614;2022-07-15T04:38:46;5.53;;;1.67;;
20441;SDS011;10380;52.102;20.614;2022-07-15T04:41:12;3.95;;;1.25;;
20441;SDS011;10380;52.102;20.614;2022-07-15T04:43:40;2.40;;;1.20;;
20441;SDS011;10380;52.102;20.614;2022-07-15T04:46:06;4.72;;;1.50;;
20441;SDS011;10380;52.102;20.614;2022-07-15T04:48:33;5.10;;;1.40;;
20441;SDS011;10380;52.102;20.614;2022-07-15T04:51:19;3.10;;;1.15;;
20441;SDS011;10380;52.102;20.614;2022-07-15T04:53:46;4.43;;;1.40;;
20441;SDS011;10380;52.102;20.614;2022-07-15T04:56:13;2.08;;;1.00;;
20441;SDS011;10380;52.102;20.614;2022-07-15T04:58:41;3.20;;;1.27;;
20441;SDS011;10380;52.102;20.614;2022-07-15T05:01:08;6.68;;;1.30;;
20441;SDS011;10380;52.102;20.614;2022-07-15T05:03:35;4.13;;;1.20;;
20441;SDS011;10380;52.102;20.614;2022-07-15T05:06:02;6.25;;;1.02;;
20441;SDS011;10380;52.102;20.614;2022-07-15T05:08:29;3.03;;;0.93;;
20441;SDS011;10380;52.102;20.614;2022-07-15T05:10:56;6.57;;;1.83;;
20441;SDS011;10380;52.102;20.614;2022-07-15T05:13:23;6.93;;;1.58;;
20441;SDS011;10380;52.102;20.614;2022-07-15T05:15:50;5.90;;;1.05;;
20441;SDS011;10380;52.102;20.614;2022-07-15T05:18:17;5.15;;;1.50;;
20441;SDS011;10380;52.102;20.614;2022-07-15T05:20:44;3.28;;;1.10;;
20441;SDS011;10380;52.102;20.614;2022-07-15T05:23:10;2.70;;;1.25;;
20441;SDS011;10380;52.102;20.614;2022-07-15T05:25:37;4.75;;;1.45;;
20441;SDS011;10380;52.102;20.614;2022-07-15T05:28:04;3.50;;;1.67;;
20441;SDS011;10380;52.102;20.614;2022-07-15T05:30:31;4.78;;;1.27;;
20441;SDS011;10380;52.102;20.614;2022-07-15T05:32:58;3.55;;;1.20;;
20441;SDS011;10380;52.102;20.614;2022-07-15T05:35:25;3.00;;;1.20;;
20441;SDS011;10380;52.102;20.614;2022-07-15T05:37:51;4.03;;;1.17;;
20441;SDS011;10380;52.102;20.614;2022-07-15T05:40:18;2.40;;;1.10;;
20441;SDS011;10380;52.102;20.614;2022-07-15T05:42:45;2.60;;;1.00;;
20441;SDS011;10380;52.102;20.614;2022-07-15T05:45:13;9.65;;;1.42;;
20441;SDS011;10380;52.102;20.614;2022-07-15T05:47:45;7.57;;;1.63;;
20441;SDS011;10380;52.102;20.614;2022-07-15T05:50:14;6.75;;;1.73;;
20441;SDS011;10380;52.102;20.614;2022-07-15T05:52:41;8.30;;;2.08;;
20441;SDS011;10380;52.102;20.614;2022-07-15T05:55:08;6.60;;;2.17;;
20441;SDS011;10380;52.102;20.614;2022-07-15T05:57:35;8.55;;;1.92;;
20441;SDS011;10380;52.102;20.614;2022-07-15T06:00:10;5.57;;;1.38;;
20441;SDS011;10380;52.102;20.614;2022-07-15T06:02:38;7.88;;;2.05;;
20441;SDS011;10380;52.102;20.614;2022-07-15T06:05:05;4.93;;;1.85;;
20441;SDS011;10380;52.102;20.614;2022-07-15T06:07:32;5.68;;;1.50;;
20441;SDS011;10380;52.102;20.614;2022-07-15T06:09:59;5.25;;;1.55;;
20441;SDS011;10380;52.102;20.614;2022-07-15T06:12:26;4.90;;;2.45;;
20441;SDS011;10380;52.102;20.614;2022-07-15T06:14:53;5.25;;;1.88;;
20441;SDS011;10380;52.102;20.614;2022-07-15T06:17:20;4.95;;;1.60;;
20441;SDS011;10380;52.102;20.614;2022-07-15T06:19:47;5.30;;;1.73;;
20441;SDS011;10380;52.102;20.614;2022-07-15T06:22:13;4.28;;;1.13;;
20441;SDS011;10380;52.102;20.614;2022-07-15T06:24:40;3.97;;;1.10;;
20441;SDS011;10380;52.102;20.614;2022-07-15T06:27:07;6.07;;;1.95;;
20441;SDS011;10380;52.102;20.614;2022-07-15T06:29:35;5.25;;;1.85;;
20441;SDS011;10380;52.102;20.614;2022-07-15T06:32:01;4.32;;;1.55;;
20441;SDS011;10380;52.102;20.614;2022-07-15T06:34:29;3.35;;;1.38;;
20441;SDS011;10380;52.102;20.614;2022-07-15T06:36:56;2.65;;;1.40;;
20441;SDS011;10380;52.102;20.614;2022-07-15T06:39:22;3.25;;;1.20;;
20441;SDS011;10380;52.102;20.614;2022-07-15T06:41:49;4.78;;;1.58;;
20441;SDS011;10380;52.102;20.614;2022-07-15T06:44:16;4.50;;;1.27;;
20441;SDS011;10380;52.102;20.614;2022-07-15T06:46:43;10.50;;;1.70;;
20441;SDS011;10380;52.102;20.614;2022-07-15T06:49:10;4.82;;;1.10;;
20441;SDS011;10380;52.102;20.614;2022-07-15T06:51:37;6.32;;;1.67;;
20441;SDS011;10380;52.102;20.614;2022-07-15T06:54:04;4.72;;;1.10;;
20441;SDS011;10380;52.102;20.614;2022-07-15T06:56:33;3.83;;;2.28;;
20441;SDS011;10380;52.102;20.614;2022-07-15T06:59:00;4.85;;;1.63;;
20441;SDS011;10380;52.102;20.614;2022-07-15T07:01:27;3.28;;;1.27;;
20441;SDS011;10380;52.102;20.614;2022-07-15T07:03:54;3.80;;;1.00;;
20441;SDS011;10380;52.102;20.614;2022-07-15T07:06:24;4.45;;;1.40;;
20441;SDS011;10380;52.102;20.614;2022-07-15T07:08:52;2.15;;;1.20;;
20441;SDS011;10380;52.102;20.614;2022-07-15T07:11:19;4.22;;;1.52;;
20441;SDS011;10380;52.102;20.614;2022-07-15T07:13:47;5.53;;;1.27;;
20441;SDS011;10380;52.102;20.614;2022-07-15T07:16:17;7.57;;;1.35;;
20441;SDS011;10380;52.102;20.614;2022-07-15T07:18:44;4.30;;;1.23;;
20441;SDS011;10380;52.102;20.614;2022-07-15T07:21:12;4.50;;;1.60;;
20441;SDS011;10380;52.102;20.614;2022-07-15T07:23:41;7.20;;;1.65;;
20441;SDS011;10380;52.102;20.614;2022-07-15T07:26:08;6.20;;;1.60;;
20441;SDS011;10380;52.102;20.614;2022-07-15T07:28:35;4.03;;;1.85;;
20441;SDS011;10380;52.102;20.614;2022-07-15T07:31:04;3.60;;;1.73;;
20441;SDS011;10380;52.102;20.614;2022-07-15T07:33:35;3.17;;;1.20;;
20441;SDS011;10380;52.102;20.614;2022-07-15T07:36:03;4.57;;;1.73;;
20441;SDS011;10380;52.102;20.614;2022-07-15T07:38:31;2.15;;;1.17;;
20441;SDS011;10380;52.102;20.614;2022-07-15T07:40:59;2.42;;;1.17;;
20441;SDS011;10380;52.102;20.614;2022-07-15T07:43:27;3.20;;;0.90;;
20441;SDS011;10380;52.102;20.614;2022-07-15T07:45:54;7.82;;;1.27;;
20441;SDS011;10380;52.102;20.614;2022-07-15T07:48:21;1.30;;;0.90;;
20441;SDS011;10380;52.102;20.614;2022-07-15T07:50:47;2.80;;;1.00;;
20441;SDS011;10380;52.102;20.614;2022-07-15T07:53:14;6.70;;;1.00;;
20441;SDS011;10380;52.102;20.614;2022-07-15T07:55:41;1.45;;;1.02;;
20441;SDS011;10380;52.102;20.614;2022-07-15T07:58:08;2.78;;;0.80;;
20441;SDS011;10380;52.102;20.614;2022-07-15T08:00:35;5.40;;;1.00;;
20441;SDS011;10380;52.102;20.614;2022-07-15T08:03:02;3.40;;;1.05;;
20441;SDS011;10380;52.102;20.614;2022-07-15T08:05:29;2.05;;;0.80;;
20441;SDS011;10380;52.102;20.614;2022-07-15T08:08:06;1.15;;;0.90;;
20441;SDS011;10380;52.102;20.614;2022-07-15T08:10:39;2.95;;;0.82;;
20441;SDS011;10380;52.102;20.614;2022-07-15T08:13:13;5.63;;;0.93;;
20441;SDS011;10380;52.102;20.614;2022-07-15T08:15:40;2.50;;;1.08;;
20441;SDS011;10380;52.102;20.614;2022-07-15T08:18:07;1.23;;;0.60;;
20441;SDS011;10380;52.102;20.614;2022-07-15T08:20:34;1.45;;;0.60;;
20441;SDS011;10380;52.102;20.614;2022-07-15T08:23:02;3.78;;;0.80;;
20441;SDS011;10380;52.102;20.614;2022-07-15T08:25:31;3.35;;;0.65;;
20441;SDS011;10380;52.102;20.614;2022-07-15T08:27:59;1.65;;;0.70;;
20441;SDS011;10380;52.102;20.614;2022-07-15T08:30:27;2.03;;;1.15;;
20441;SDS011;10380;52.102;20.614;2022-07-15T08:32:56;2.67;;;0.88;;
20441;SDS011;10380;52.102;20.614;2022-07-15T08:35:24;1.60;;;0.60;;
20441;SDS011;10380;52.102;20.614;2022-07-15T08:37:52;4.85;;;1.17;;
20441;SDS011;10380;52.102;20.614;2022-07-15T08:40:19;4.60;;;1.17;;
20441;SDS011;10380;52.102;20.614;2022-07-15T08:42:47;4.50;;;0.98;;
20441;SDS011;10380;52.102;20.614;2022-07-15T08:45:15;6.38;;;0.75;;
20441;SDS011;10380;52.102;20.614;2022-07-15T08:47:44;4.18;;;1.00;;
20441;SDS011;10380;52.102;20.614;2022-07-15T08:50:19;5.07;;;0.80;;
20441;SDS011;10380;52.102;20.614;2022-07-15T08:52:47;5.13;;;0.85;;
20441;SDS011;10380;52.102;20.614;2022-07-15T08:55:15;1.05;;;0.70;;
20441;SDS011;10380;52.102;20.614;2022-07-15T08:57:48;2.90;;;0.70;;
20441;SDS011;10380;52.102;20.614;2022-07-15T09:00:17;1.55;;;0.80;;
20441;SDS011;10380;52.102;20.614;2022-07-15T09:02:45;6.65;;;1.02;;
20441;SDS011;10380;52.102;20.614;2022-07-15T09:05:46;2.83;;;0.70;;
20441;SDS011;10380;52.102;20.614;2022-07-15T09:10:41;3.08;;;0.70;;
20441;SDS011;10380;52.102;20.614;2022-07-15T09:13:09;7.28;;;0.80;;
20441;SDS011;10380;52.102;20.614;2022-07-15T09:15:56;2.08;;;1.05;;
20441;SDS011;10380;52.102;20.614;2022-07-15T09:18:49;2.55;;;0.80;;
20441;SDS011;10380;52.102;20.614;2022-07-15T09:21:23;1.85;;;0.88;;
20441;SDS011;10380;52.102;20.614;2022-07-15T09:23:54;2.85;;;0.90;;
20441;SDS011;10380;52.102;20.614;2022-07-15T09:29:05;3.03;;;1.05;;
20441;SDS011;10380;52.102;20.614;2022-07-15T09:31:57;2.08;;;0.85;;
20441;SDS011;10380;52.102;20.614;2022-07-15T09:35:00;1.63;;;0.80;;
20441;SDS011;10380;52.102;20.614;2022-07-15T09:37:29;3.63;;;0.77;;
20441;SDS011;10380;52.102;20.614;2022-07-15T09:39:56;5.30;;;0.93;;
20441;SDS011;10380;52.102;20.614;2022-07-15T09:42:24;6.13;;;0.90;;
20441;SDS011;10380;52.102;20.614;2022-07-15T09:44:51;4.90;;;0.88;;
20441;SDS011;10380;52.102;20.614;2022-07-15T09:47:18;4.07;;;1.02;;
20441;SDS011;10380;52.102;20.614;2022-07-15T09:49:48;2.45;;;0.88;;
20441;SDS011;10380;52.102;20.614;2022-07-15T09:52:15;4.75;;;1.00;;
20441;SDS011;10380;52.102;20.614;2022-07-15T09:54:46;4.13;;;1.05;;
20441;SDS011;10380;52.102;20.614;2022-07-15T09:57:15;2.60;;;0.90;;
20441;SDS011;10380;52.102;20.614;2022-07-15T09:59:44;2.15;;;0.73;;
20441;SDS011;10380;52.102;20.614;2022-07-15T10:02:12;5.97;;;0.90;;
20441;SDS011;10380;52.102;20.614;2022-07-15T10:04:39;2.17;;;0.80;;
20441;SDS011;10380;52.102;20.614;2022-07-15T10:07:06;4.53;;;0.90;;
20441;SDS011;10380;52.102;20.614;2022-07-15T10:09:53;1.38;;;0.77;;
20441;SDS011;10380;52.102;20.614;2022-07-15T10:12:29;5.32;;;0.85;;
20441;SDS011;10380;52.102;20.614;2022-07-15T10:29:09;3.15;;;1.13;;
20441;SDS011;10380;52.102;20.614;2022-07-15T10:31:38;8.57;;;0.80;;
20441;SDS011;10380;52.102;20.614;2022-07-15T10:39:22;4.05;;;1.10;;
20441;SDS011;10380;52.102;20.614;2022-07-15T10:42:02;2.45;;;0.70;;
20441;SDS011;10380;52.102;20.614;2022-07-15T10:44:33;2.65;;;0.73;;
20441;SDS011;10380;52.102;20.614;2022-07-15T10:49:43;7.25;;;1.15;;
20441;SDS011;10380;52.102;20.614;2022-07-15T10:54:47;6.20;;;1.40;;
20441;SDS011;10380;52.102;20.614;2022-07-15T10:57:14;2.15;;;0.80;;
20441;SDS011;10380;52.102;20.614;2022-07-15T10:59:48;5.25;;;1.10;;
20441;SDS011;10380;52.102;20.614;2022-07-15T11:02:22;8.80;;;1.10;;
20441;SDS011;10380;52.102;20.614;2022-07-15T11:04:51;3.53;;;0.63;;
20441;SDS011;10380;52.102;20.614;2022-07-15T11:07:38;2.28;;;0.60;;
20441;SDS011;10380;52.102;20.614;2022-07-15T11:15:03;7.93;;;1.20;;
20441;SDS011;10380;52.102;20.614;2022-07-15T11:20:03;4.03;;;0.73;;
20441;SDS011;10380;52.102;20.614;2022-07-15T11:22:37;3.95;;;0.80;;
20441;SDS011;10380;52.102;20.614;2022-07-15T11:33:02;2.75;;;0.80;;
20441;SDS011;10380;52.102;20.614;2022-07-15T11:35:32;2.20;;;0.63;;
20441;SDS011;10380;52.102;20.614;2022-07-15T11:38:12;3.83;;;0.80;;
20441;SDS011;10380;52.102;20.614;2022-07-15T11:40:44;4.78;;;1.48;;
20441;SDS011;10380;52.102;20.614;2022-07-15T11:43:32;12.02;;;1.95;;
20441;SDS011;10380;52.102;20.614;2022-07-15T11:46:18;5.57;;;0.68;;
20441;SDS011;10380;52.102;20.614;2022-07-15T11:48:46;1.13;;;0.52;;
20441;SDS011;10380;52.102;20.614;2022-07-15T11:51:13;6.85;;;1.42;;
20441;SDS011;10380;52.102;20.614;2022-07-15T11:53:41;3.38;;;1.00;;
20441;SDS011;10380;52.102;20.614;2022-07-15T11:56:11;4.68;;;0.85;;
20441;SDS011;10380;52.102;20.614;2022-07-15T11:58:43;3.85;;;0.80;;
20441;SDS011;10380;52.102;20.614;2022-07-15T12:01:12;1.48;;;0.70;;
20441;SDS011;10380;52.102;20.614;2022-07-15T12:03:42;5.25;;;0.80;;
20441;SDS011;10380;52.102;20.614;2022-07-15T12:11:18;1.70;;;0.55;;
20441;SDS011;10380;52.102;20.614;2022-07-15T12:13:47;3.00;;;0.60;;
20441;SDS011;10380;52.102;20.614;2022-07-15T12:16:24;4.18;;;0.60;;
20441;SDS011;10380;52.102;20.614;2022-07-15T12:19:04;4.78;;;0.63;;
20441;SDS011;10380;52.102;20.614;2022-07-15T12:21:35;8.32;;;1.17;;
20441;SDS011;10380;52.102;20.614;2022-07-15T12:24:10;3.65;;;0.68;;
20441;SDS011;10380;52.102;20.614;2022-07-15T12:26:40;2.35;;;0.70;;
20441;SDS011;10380;52.102;20.614;2022-07-15T12:29:28;5.45;;;0.60;;
20441;SDS011;10380;52.102;20.614;2022-07-15T12:32:17;1.33;;;0.50;;
20441;SDS011;10380;52.102;20.614;2022-07-15T12:37:24;1.45;;;0.60;;
20441;SDS011;10380;52.102;20.614;2022-07-15T12:42:29;1.58;;;0.45;;
20441;SDS011;10380;52.102;20.614;2022-07-15T12:45:09;3.60;;;0.80;;
20441;SDS011;10380;52.102;20.614;2022-07-15T12:50:26;2.25;;;0.77;;
20441;SDS011;10380;52.102;20.614;2022-07-15T12:52:54;8.07;;;0.90;;
20441;SDS011;10380;52.102;20.614;2022-07-15T12:55:25;3.95;;;0.90;;
20441;SDS011;10380;52.102;20.614;2022-07-15T12:58:06;0.68;;;0.43;;
20441;SDS011;10380;52.102;20.614;2022-07-15T13:00:35;2.13;;;0.73;;
20441;SDS011;10380;52.102;20.614;2022-07-15T13:03:04;4.28;;;0.65;;
20441;SDS011;10380;52.102;20.614;2022-07-15T13:05:50;12.43;;;1.45;;
20441;SDS011;10380;52.102;20.614;2022-07-15T13:08:26;3.85;;;0.88;;
20441;SDS011;10380;52.102;20.614;2022-07-15T13:10:56;2.03;;;0.47;;
20441;SDS011;10380;52.102;20.614;2022-07-15T13:13:25;4.18;;;0.88;;
20441;SDS011;10380;52.102;20.614;2022-07-15T13:15:53;5.13;;;0.70;;
20441;SDS011;10380;52.102;20.614;2022-07-15T13:18:20;2.40;;;0.50;;
20441;SDS011;10380;52.102;20.614;2022-07-15T13:20:48;4.72;;;1.05;;
20441;SDS011;10380;52.102;20.614;2022-07-15T13:23:15;3.75;;;0.77;;
20441;SDS011;10380;52.102;20.614;2022-07-15T13:25:42;1.42;;;0.40;;
20441;SDS011;10380;52.102;20.614;2022-07-15T13:28:09;2.67;;;0.75;;
20441;SDS011;10380;52.102;20.614;2022-07-15T13:30:37;5.63;;;0.90;;
20441;SDS011;10380;52.102;20.614;2022-07-15T13:33:04;1.52;;;0.55;;
20441;SDS011;10380;52.102;20.614;2022-07-15T13:35:32;3.85;;;0.52;;
20441;SDS011;10380;52.102;20.614;2022-07-15T13:37:59;2.78;;;0.75;;
20441;SDS011;10380;52.102;20.614;2022-07-15T13:40:26;4.78;;;0.80;;
20441;SDS011;10380;52.102;20.614;2022-07-15T13:42:53;1.27;;;0.60;;
20441;SDS011;10380;52.102;20.614;2022-07-15T13:45:20;3.33;;;1.20;;
20441;SDS011;10380;52.102;20.614;2022-07-15T13:47:46;3.78;;;0.40;;
20441;SDS011;10380;52.102;20.614;2022-07-15T13:50:13;4.38;;;0.50;;
20441;SDS011;10380;52.102;20.614;2022-07-15T13:52:59;5.43;;;0.63;;
20441;SDS011;10380;52.102;20.614;2022-07-15T13:55:26;4.32;;;0.70;;
20441;SDS011;10380;52.102;20.614;2022-07-15T13:57:53;1.58;;;0.40;;
20441;SDS011;10380;52.102;20.614;2022-07-15T14:00:21;0.40;;;0.30;;
20441;SDS011;10380;52.102;20.614;2022-07-15T14:02:50;2.75;;;0.70;;
20441;SDS011;10380;52.102;20.614;2022-07-15T14:05:19;3.42;;;0.90;;
20441;SDS011;10380;52.102;20.614;2022-07-15T14:07:46;5.18;;;1.00;;
20441;SDS011;10380;52.102;20.614;2022-07-15T14:10:14;2.47;;;0.40;;
20441;SDS011;10380;52.102;20.614;2022-07-15T14:12:41;7.43;;;0.60;;
20441;SDS011;10380;52.102;20.614;2022-07-15T14:15:08;1.00;;;0.40;;
20441;SDS011;10380;52.102;20.614;2022-07-15T14:17:35;2.67;;;0.70;;
20441;SDS011;10380;52.102;20.614;2022-07-15T14:20:02;3.45;;;0.47;;
20441;SDS011;10380;52.102;20.614;2022-07-15T14:22:30;1.13;;;0.47;;
20441;SDS011;10380;52.102;20.614;2022-07-15T14:24:58;2.13;;;0.40;;
20441;SDS011;10380;52.102;20.614;2022-07-15T14:27:26;4.88;;;0.43;;
20441;SDS011;10380;52.102;20.614;2022-07-15T14:29:53;1.42;;;0.52;;
20441;SDS011;10380;52.102;20.614;2022-07-15T14:32:27;5.25;;;0.75;;
20441;SDS011;10380;52.102;20.614;2022-07-15T14:34:59;6.85;;;1.02;;
20441;SDS011;10380;52.102;20.614;2022-07-15T14:37:26;9.23;;;1.48;;
20441;SDS011;10380;52.102;20.614;2022-07-15T14:39:59;3.88;;;0.70;;
20441;SDS011;10380;52.102;20.614;2022-07-15T14:42:28;2.80;;;0.50;;
20441;SDS011;10380;52.102;20.614;2022-07-15T14:44:55;2.92;;;0.80;;
20441;SDS011;10380;52.102;20.614;2022-07-15T14:47:22;2.28;;;0.77;;
20441;SDS011;10380;52.102;20.614;2022-07-15T14:49:49;1.33;;;0.80;;
20441;SDS011;10380;52.102;20.614;2022-07-15T14:52:16;3.28;;;0.65;;
20441;SDS011;10380;52.102;20.614;2022-07-15T14:54:43;3.65;;;0.90;;
20441;SDS011;10380;52.102;20.614;2022-07-15T14:57:11;3.15;;;0.85;;
20441;SDS011;10380;52.102;20.614;2022-07-15T14:59:39;4.47;;;1.05;;
20441;SDS011;10380;52.102;20.614;2022-07-15T15:02:06;5.18;;;1.15;;
20441;SDS011;10380;52.102;20.614;2022-07-15T15:04:36;10.55;;;1.00;;
20441;SDS011;10380;52.102;20.614;2022-07-15T15:07:03;2.83;;;0.70;;
20441;SDS011;10380;52.102;20.614;2022-07-15T15:09:31;2.90;;;0.65;;
20441;SDS011;10380;52.102;20.614;2022-07-15T15:12:00;0.63;;;0.50;;
20441;SDS011;10380;52.102;20.614;2022-07-15T15:14:34;8.25;;;0.98;;
20441;SDS011;10380;52.102;20.614;2022-07-15T15:17:01;1.88;;;0.55;;
20441;SDS011;10380;52.102;20.614;2022-07-15T15:19:32;3.10;;;0.93;;
20441;SDS011;10380;52.102;20.614;2022-07-15T15:21:59;3.92;;;0.70;;
20441;SDS011;10380;52.102;20.614;2022-07-15T15:24:26;3.72;;;0.82;;
20441;SDS011;10380;52.102;20.614;2022-07-15T15:26:53;3.92;;;0.55;;
20441;SDS011;10380;52.102;20.614;2022-07-15T15:29:23;1.45;;;0.60;;
20441;SDS011;10380;52.102;20.614;2022-07-15T15:31:51;1.33;;;0.50;;
20441;SDS011;10380;52.102;20.614;2022-07-15T15:34:18;9.10;;;0.82;;
20441;SDS011;10380;52.102;20.614;2022-07-15T15:36:45;1.90;;;0.80;;
20441;SDS011;10380;52.102;20.614;2022-07-15T15:39:14;2.17;;;0.50;;
20441;SDS011;10380;52.102;20.614;2022-07-15T15:41:41;2.35;;;0.55;;
20441;SDS011;10380;52.102;20.614;2022-07-15T15:44:09;4.00;;;1.00;;